sensor_id;sensor_type;location;lat;lon;timestamp;P1;durP1;ratioP1;P2;durP2;ratioP2
74777;SDS011;63298;53.164;8.610;2022-12-05T00:02:20;26.27;;;12.25;;
74777;SDS011;63298;53.164;8.610;2022-12-05T00:04:45;25.58;;;12.15;;
74777;SDS011;63298;53.164;8.610;2022-12-05T00:07:11;23.10;;;11.90;;
74777;SDS011;63298;53.164;8.610;2022-12-05T00:09:36;24.93;;;11.70;;
74777;SDS011;63298;53.164;8.610;2022-12-05T00:12:01;29.67;;;11.93;;
74777;SDS011;63298;53.164;8.610;2022-12-05T00:14:27;26.05;;;12.30;;
74777;SDS011;63298;53.164;8.610;2022-12-05T00:16:53;28.50;;;12.50;;
74777;SDS011;63298;53.164;8.610;2022-12-05T00:19:18;27.13;;;11.15;;
74777;SDS011;63298;53.164;8.610;2022-12-05T00:21:43;24.43;;;11.50;;
74777;SDS011;63298;53.164;8.610;2022-12-05T00:24:10;29.20;;;13.00;;
74777;SDS011;63298;53.164;8.610;2022-12-05T00:26:38;29.40;;;13.27;;
74777;SDS011;63298;53.164;8.610;2022-12-05T00:29:03;26.33;;;11.82;;
74777;SDS011;63298;53.164;8.610;2022-12-05T00:31:29;27.77;;;12.05;;
74777;SDS011;63298;53.164;8.610;2022-12-05T00:33:55;29.88;;;12.50;;
74777;SDS011;63298;53.164;8.610;2022-12-05T00:36:23;33.38;;;14.10;;
74777;SDS011;63298;53.164;8.610;2022-12-05T00:38:51;30.10;;;12.85;;
74777;SDS011;63298;53.164;8.610;2022-12-05T00:41:18;29.63;;;12.82;;
74777;SDS011;63298;53.164;8.610;2022-12-05T00:43:49;32.47;;;13.82;;
74777;SDS011;63298;53.164;8.610;2022-12-05T00:46:15;30.55;;;13.82;;
74777;SDS011;63298;53.164;8.610;2022-12-05T00:48:44;30.00;;;12.95;;
74777;SDS011;63298;53.164;8.610;2022-12-05T00:51:14;32.03;;;13.75;;
74777;SDS011;63298;53.164;8.610;2022-12-05T00:53:41;32.70;;;13.98;;
74777;SDS011;63298;53.164;8.610;2022-12-05T00:56:11;31.75;;;13.43;;
74777;SDS011;63298;53.164;8.610;2022-12-05T00:58:42;28.55;;;13.50;;
74777;SDS011;63298;53.164;8.610;2022-12-05T01:03:40;32.45;;;13.93;;
74777;SDS011;63298;53.164;8.610;2022-12-05T01:06:07;31.63;;;13.40;;
74777;SDS011;63298;53.164;8.610;2022-12-05T01:08:33;31.70;;;13.38;;
74777;SDS011;63298;53.164;8.610;2022-12-05T01:10:59;27.80;;;12.95;;
74777;SDS011;63298;53.164;8.610;2022-12-05T01:13:25;29.70;;;12.70;;
74777;SDS011;63298;53.164;8.610;2022-12-05T01:15:51;31.83;;;14.15;;
74777;SDS011;63298;53.164;8.610;2022-12-05T01:18:17;32.25;;;14.02;;
74777;SDS011;63298;53.164;8.610;2022-12-05T01:20:44;35.30;;;13.90;;
74777;SDS011;63298;53.164;8.610;2022-12-05T01:23:10;35.80;;;13.82;;
74777;SDS011;63298;53.164;8.610;2022-12-05T01:25:39;33.28;;;13.68;;
74777;SDS011;63298;53.164;8.610;2022-12-05T01:28:05;30.23;;;13.70;;
74777;SDS011;63298;53.164;8.610;2022-12-05T01:30:31;34.78;;;13.90;;
74777;SDS011;63298;53.164;8.610;2022-12-05T01:32:57;32.97;;;14.63;;
74777;SDS011;63298;53.164;8.610;2022-12-05T01:35:23;34.63;;;13.73;;
74777;SDS011;63298;53.164;8.610;2022-12-05T01:37:49;34.30;;;13.68;;
74777;SDS011;63298;53.164;8.610;2022-12-05T01:40:15;30.25;;;13.45;;
74777;SDS011;63298;53.164;8.610;2022-12-05T01:42:40;28.83;;;12.57;;
74777;SDS011;63298;53.164;8.610;2022-12-05T01:45:09;35.80;;;14.23;;
74777;SDS011;63298;53.164;8.610;2022-12-05T01:47:39;30.00;;;12.50;;
74777;SDS011;63298;53.164;8.610;2022-12-05T01:50:05;27.83;;;12.30;;
74777;SDS011;63298;53.164;8.610;2022-12-05T01:52:31;32.53;;;13.90;;
74777;SDS011;63298;53.164;8.610;2022-12-05T01:54:59;31.15;;;14.13;;
74777;SDS011;63298;53.164;8.610;2022-12-05T01:57:30;28.25;;;12.23;;
74777;SDS011;63298;53.164;8.610;2022-12-05T01:59:57;32.38;;;13.65;;
74777;SDS011;63298;53.164;8.610;2022-12-05T02:02:32;26.40;;;11.45;;
74777;SDS011;63298;53.164;8.610;2022-12-05T02:05:00;31.45;;;12.45;;
74777;SDS011;63298;53.164;8.610;2022-12-05T02:07:30;27.45;;;11.93;;
74777;SDS011;63298;53.164;8.610;2022-12-05T02:09:56;26.02;;;12.60;;
74777;SDS011;63298;53.164;8.610;2022-12-05T02:12:21;27.80;;;11.60;;
74777;SDS011;63298;53.164;8.610;2022-12-05T02:25:53;34.05;;;13.68;;
74777;SDS011;63298;53.164;8.610;2022-12-05T02:31:52;28.08;;;12.60;;
74777;SDS011;63298;53.164;8.610;2022-12-05T02:39:39;28.38;;;12.77;;
74777;SDS011;63298;53.164;8.610;2022-12-05T02:44:56;23.63;;;10.85;;
74777;SDS011;63298;53.164;8.610;2022-12-05T02:47:26;30.20;;;11.88;;
74777;SDS011;63298;53.164;8.610;2022-12-05T02:49:55;30.70;;;12.43;;
74777;SDS011;63298;53.164;8.610;2022-12-05T02:52:22;25.73;;;10.77;;
74777;SDS011;63298;53.164;8.610;2022-12-05T02:54:49;30.05;;;11.98;;
74777;SDS011;63298;53.164;8.610;2022-12-05T02:57:17;25.90;;;11.70;;
74777;SDS011;63298;53.164;8.610;2022-12-05T02:59:44;22.30;;;10.63;;
74777;SDS011;63298;53.164;8.610;2022-12-05T03:02:21;27.65;;;11.40;;
74777;SDS011;63298;53.164;8.610;2022-12-05T03:04:48;28.00;;;11.25;;
74777;SDS011;63298;53.164;8.610;2022-12-05T03:07:13;24.95;;;12.00;;
74777;SDS011;63298;53.164;8.610;2022-12-05T03:10:02;24.95;;;10.82;;
74777;SDS011;63298;53.164;8.610;2022-12-05T03:15:01;22.85;;;10.35;;
74777;SDS011;63298;53.164;8.610;2022-12-05T03:17:36;24.23;;;10.75;;
74777;SDS011;63298;53.164;8.610;2022-12-05T03:20:15;19.85;;;9.57;;
74777;SDS011;63298;53.164;8.610;2022-12-05T03:22:48;25.10;;;10.15;;
74777;SDS011;63298;53.164;8.610;2022-12-05T03:25:19;20.27;;;10.15;;
74777;SDS011;63298;53.164;8.610;2022-12-05T03:30:21;20.30;;;10.07;;
74777;SDS011;63298;53.164;8.610;2022-12-05T03:32:59;23.73;;;10.18;;
74777;SDS011;63298;53.164;8.610;2022-12-05T03:35:36;21.58;;;10.40;;
74777;SDS011;63298;53.164;8.610;2022-12-05T03:40:52;19.50;;;8.93;;
74777;SDS011;63298;53.164;8.610;2022-12-05T03:43:36;18.63;;;8.52;;
74777;SDS011;63298;53.164;8.610;2022-12-05T03:49:21;20.65;;;9.70;;
74777;SDS011;63298;53.164;8.610;2022-12-05T03:51:56;15.82;;;8.13;;
74777;SDS011;63298;53.164;8.610;2022-12-05T03:54:35;19.40;;;9.63;;
74777;SDS011;63298;53.164;8.610;2022-12-05T03:57:14;20.88;;;9.40;;
74777;SDS011;63298;53.164;8.610;2022-12-05T04:00:04;22.83;;;11.05;;
74777;SDS011;63298;53.164;8.610;2022-12-05T04:05:09;19.73;;;8.90;;
74777;SDS011;63298;53.164;8.610;2022-12-05T04:08:00;19.42;;;9.77;;
74777;SDS011;63298;53.164;8.610;2022-12-05T04:10:30;22.17;;;10.18;;
74777;SDS011;63298;53.164;8.610;2022-12-05T04:13:00;20.48;;;9.10;;
74777;SDS011;63298;53.164;8.610;2022-12-05T04:15:29;20.27;;;9.50;;
74777;SDS011;63298;53.164;8.610;2022-12-05T04:17:56;18.30;;;9.15;;
74777;SDS011;63298;53.164;8.610;2022-12-05T04:20:28;18.77;;;9.05;;
74777;SDS011;63298;53.164;8.610;2022-12-05T04:23:06;24.02;;;10.52;;
74777;SDS011;63298;53.164;8.610;2022-12-05T04:25:39;25.27;;;11.10;;
74777;SDS011;63298;53.164;8.610;2022-12-05T04:33:59;22.63;;;10.98;;
74777;SDS011;63298;53.164;8.610;2022-12-05T04:36:44;18.50;;;9.68;;
74777;SDS011;63298;53.164;8.610;2022-12-05T04:41:45;18.33;;;9.88;;
74777;SDS011;63298;53.164;8.610;2022-12-05T04:44:16;22.48;;;10.23;;
74777;SDS011;63298;53.164;8.610;2022-12-05T04:46:44;21.75;;;10.10;;
74777;SDS011;63298;53.164;8.610;2022-12-05T04:49:15;21.33;;;10.27;;
74777;SDS011;63298;53.164;8.610;2022-12-05T04:51:44;20.08;;;10.02;;
74777;SDS011;63298;53.164;8.610;2022-12-05T04:54:15;19.65;;;9.35;;
74777;SDS011;63298;53.164;8.610;2022-12-05T04:56:49;19.10;;;9.38;;
74777;SDS011;63298;53.164;8.610;2022-12-05T04:59:18;20.98;;;10.13;;
74777;SDS011;63298;53.164;8.610;2022-12-05T05:01:45;22.38;;;9.88;;
74777;SDS011;63298;53.164;8.610;2022-12-05T05:04:22;18.17;;;8.95;;
74777;SDS011;63298;53.164;8.610;2022-12-05T05:06:53;18.83;;;9.15;;
74777;SDS011;63298;53.164;8.610;2022-12-05T05:09:18;17.90;;;8.63;;
74777;SDS011;63298;53.164;8.610;2022-12-05T05:11:43;19.77;;;9.25;;
74777;SDS011;63298;53.164;8.610;2022-12-05T05:14:09;16.52;;;8.63;;
74777;SDS011;63298;53.164;8.610;2022-12-05T05:16:35;19.92;;;9.05;;
74777;SDS011;63298;53.164;8.610;2022-12-05T05:19:03;17.95;;;8.85;;
74777;SDS011;63298;53.164;8.610;2022-12-05T05:21:30;21.58;;;8.80;;
74777;SDS011;63298;53.164;8.610;2022-12-05T05:24:00;16.95;;;7.97;;
74777;SDS011;63298;53.164;8.610;2022-12-05T05:26:26;14.05;;;7.38;;
74777;SDS011;63298;53.164;8.610;2022-12-05T05:28:56;14.60;;;7.07;;
74777;SDS011;63298;53.164;8.610;2022-12-05T05:31:22;13.68;;;7.15;;
74777;SDS011;63298;53.164;8.610;2022-12-05T05:33:48;15.52;;;7.32;;
74777;SDS011;63298;53.164;8.610;2022-12-05T05:36:14;14.50;;;6.80;;
74777;SDS011;63298;53.164;8.610;2022-12-05T05:38:40;14.20;;;6.68;;
74777;SDS011;63298;53.164;8.610;2022-12-05T05:41:11;12.13;;;5.95;;
74777;SDS011;63298;53.164;8.610;2022-12-05T05:43:44;13.32;;;6.03;;
74777;SDS011;63298;53.164;8.610;2022-12-05T05:46:10;16.65;;;6.90;;
74777;SDS011;63298;53.164;8.610;2022-12-05T05:48:39;11.85;;;5.63;;
74777;SDS011;63298;53.164;8.610;2022-12-05T05:51:05;10.27;;;4.70;;
74777;SDS011;63298;53.164;8.610;2022-12-05T05:53:32;8.73;;;4.95;;
74777;SDS011;63298;53.164;8.610;2022-12-05T05:56:10;10.55;;;4.78;;
74777;SDS011;63298;53.164;8.610;2022-12-05T05:58:40;10.13;;;5.18;;
74777;SDS011;63298;53.164;8.610;2022-12-05T06:01:10;9.02;;;4.93;;
74777;SDS011;63298;53.164;8.610;2022-12-05T06:03:37;10.63;;;4.90;;
74777;SDS011;63298;53.164;8.610;2022-12-05T06:06:04;9.82;;;5.22;;
74777;SDS011;63298;53.164;8.610;2022-12-05T06:08:32;10.30;;;5.55;;
74777;SDS011;63298;53.164;8.610;2022-12-05T06:10:58;8.52;;;5.00;;
74777;SDS011;63298;53.164;8.610;2022-12-05T06:13:24;11.57;;;5.47;;
74777;SDS011;63298;53.164;8.610;2022-12-05T06:15:49;7.63;;;4.90;;
74777;SDS011;63298;53.164;8.610;2022-12-05T06:18:15;8.45;;;4.65;;
74777;SDS011;63298;53.164;8.610;2022-12-05T06:20:41;9.60;;;4.60;;
74777;SDS011;63298;53.164;8.610;2022-12-05T06:23:06;9.23;;;4.70;;
74777;SDS011;63298;53.164;8.610;2022-12-05T06:25:32;7.45;;;4.47;;
74777;SDS011;63298;53.164;8.610;2022-12-05T06:27:57;7.95;;;4.45;;
74777;SDS011;63298;53.164;8.610;2022-12-05T06:30:22;7.30;;;4.57;;
74777;SDS011;63298;53.164;8.610;2022-12-05T06:32:48;6.85;;;4.13;;
74777;SDS011;63298;53.164;8.610;2022-12-05T06:35:13;7.50;;;4.25;;
74777;SDS011;63298;53.164;8.610;2022-12-05T06:37:39;5.85;;;3.75;;
74777;SDS011;63298;53.164;8.610;2022-12-05T06:40:05;5.75;;;3.80;;
74777;SDS011;63298;53.164;8.610;2022-12-05T06:42:30;6.38;;;3.80;;
74777;SDS011;63298;53.164;8.610;2022-12-05T06:44:56;5.57;;;3.85;;
74777;SDS011;63298;53.164;8.610;2022-12-05T06:47:21;6.28;;;4.05;;
74777;SDS011;63298;53.164;8.610;2022-12-05T06:49:46;8.67;;;4.50;;
74777;SDS011;63298;53.164;8.610;2022-12-05T06:52:12;8.45;;;4.18;;
74777;SDS011;63298;53.164;8.610;2022-12-05T06:54:37;6.38;;;4.35;;
74777;SDS011;63298;53.164;8.610;2022-12-05T06:57:02;7.13;;;4.50;;
74777;SDS011;63298;53.164;8.610;2022-12-05T06:59:28;7.13;;;4.20;;
74777;SDS011;63298;53.164;8.610;2022-12-05T07:01:53;8.13;;;4.47;;
74777;SDS011;63298;53.164;8.610;2022-12-05T07:04:19;7.05;;;4.20;;
74777;SDS011;63298;53.164;8.610;2022-12-05T07:06:46;7.45;;;4.20;;
74777;SDS011;63298;53.164;8.610;2022-12-05T07:09:11;6.55;;;4.60;;
74777;SDS011;63298;53.164;8.610;2022-12-05T07:11:37;7.35;;;4.53;;
74777;SDS011;63298;53.164;8.610;2022-12-05T07:14:03;7.03;;;4.28;;
74777;SDS011;63298;53.164;8.610;2022-12-05T07:16:29;6.47;;;3.90;;
74777;SDS011;63298;53.164;8.610;2022-12-05T07:18:55;8.63;;;4.93;;
74777;SDS011;63298;53.164;8.610;2022-12-05T07:21:20;7.65;;;3.97;;
74777;SDS011;63298;53.164;8.610;2022-12-05T07:23:46;6.25;;;3.88;;
74777;SDS011;63298;53.164;8.610;2022-12-05T07:26:13;8.10;;;4.50;;
74777;SDS011;63298;53.164;8.610;2022-12-05T07:28:40;6.65;;;3.92;;
74777;SDS011;63298;53.164;8.610;2022-12-05T07:31:07;6.18;;;4.10;;
74777;SDS011;63298;53.164;8.610;2022-12-05T07:33:37;5.97;;;3.50;;
74777;SDS011;63298;53.164;8.610;2022-12-05T07:36:07;6.07;;;3.53;;
74777;SDS011;63298;53.164;8.610;2022-12-05T07:38:33;5.60;;;3.55;;
74777;SDS011;63298;53.164;8.610;2022-12-05T07:40:58;6.25;;;3.95;;
74777;SDS011;63298;53.164;8.610;2022-12-05T07:43:23;6.82;;;3.70;;
74777;SDS011;63298;53.164;8.610;2022-12-05T07:45:49;6.28;;;4.10;;
74777;SDS011;63298;53.164;8.610;2022-12-05T07:48:14;5.78;;;3.72;;
74777;SDS011;63298;53.164;8.610;2022-12-05T07:50:40;6.45;;;3.35;;
74777;SDS011;63298;53.164;8.610;2022-12-05T07:53:05;5.47;;;3.00;;
74777;SDS011;63298;53.164;8.610;2022-12-05T07:55:30;5.55;;;3.65;;
74777;SDS011;63298;53.164;8.610;2022-12-05T07:57:55;5.70;;;3.72;;
74777;SDS011;63298;53.164;8.610;2022-12-05T08:00:21;5.00;;;3.58;;
74777;SDS011;63298;53.164;8.610;2022-12-05T08:02:46;4.03;;;2.90;;
74777;SDS011;63298;53.164;8.610;2022-12-05T08:05:12;4.15;;;3.10;;
74777;SDS011;63298;53.164;8.610;2022-12-05T08:07:37;7.78;;;3.42;;
74777;SDS011;63298;53.164;8.610;2022-12-05T08:10:03;8.32;;;2.83;;
74777;SDS011;63298;53.164;8.610;2022-12-05T08:12:29;2.97;;;2.50;;
74777;SDS011;63298;53.164;8.610;2022-12-05T08:14:54;3.22;;;2.70;;
74777;SDS011;63298;53.164;8.610;2022-12-05T08:17:19;3.65;;;2.50;;
74777;SDS011;63298;53.164;8.610;2022-12-05T08:19:45;4.75;;;2.80;;
74777;SDS011;63298;53.164;8.610;2022-12-05T08:22:10;8.10;;;3.55;;
74777;SDS011;63298;53.164;8.610;2022-12-05T08:24:38;5.65;;;3.50;;
74777;SDS011;63298;53.164;8.610;2022-12-05T08:27:04;7.15;;;4.18;;
74777;SDS011;63298;53.164;8.610;2022-12-05T08:29:29;10.15;;;4.22;;
74777;SDS011;63298;53.164;8.610;2022-12-05T08:31:55;6.85;;;3.90;;
74777;SDS011;63298;53.164;8.610;2022-12-05T08:34:20;7.22;;;4.35;;
74777;SDS011;63298;53.164;8.610;2022-12-05T08:36:45;10.05;;;5.10;;
74777;SDS011;63298;53.164;8.610;2022-12-05T08:39:12;10.38;;;5.25;;
74777;SDS011;63298;53.164;8.610;2022-12-05T08:41:39;11.52;;;5.70;;
74777;SDS011;63298;53.164;8.610;2022-12-05T08:44:05;13.75;;;5.47;;
74777;SDS011;63298;53.164;8.610;2022-12-05T08:46:31;10.13;;;5.40;;
74777;SDS011;63298;53.164;8.610;2022-12-05T08:48:58;12.77;;;5.68;;
74777;SDS011;63298;53.164;8.610;2022-12-05T08:51:23;14.30;;;5.10;;
74777;SDS011;63298;53.164;8.610;2022-12-05T08:53:49;11.85;;;5.80;;
74777;SDS011;63298;53.164;8.610;2022-12-05T08:56:14;11.65;;;6.22;;
74777;SDS011;63298;53.164;8.610;2022-12-05T08:58:40;12.00;;;5.43;;
74777;SDS011;63298;53.164;8.610;2022-12-05T09:01:09;11.50;;;6.10;;
74777;SDS011;63298;53.164;8.610;2022-12-05T09:03:35;10.98;;;5.88;;
74777;SDS011;63298;53.164;8.610;2022-12-05T09:06:19;10.73;;;5.45;;
74777;SDS011;63298;53.164;8.610;2022-12-05T09:08:46;11.90;;;5.63;;
74777;SDS011;63298;53.164;8.610;2022-12-05T09:11:14;13.38;;;5.90;;
74777;SDS011;63298;53.164;8.610;2022-12-05T09:13:42;12.90;;;6.25;;
74777;SDS011;63298;53.164;8.610;2022-12-05T09:16:08;14.75;;;6.60;;
74777;SDS011;63298;53.164;8.610;2022-12-05T09:18:36;12.85;;;6.55;;
74777;SDS011;63298;53.164;8.610;2022-12-05T09:21:08;13.38;;;5.65;;
74777;SDS011;63298;53.164;8.610;2022-12-05T09:23:38;10.38;;;5.95;;
74777;SDS011;63298;53.164;8.610;2022-12-05T09:26:04;11.98;;;5.88;;
74777;SDS011;63298;53.164;8.610;2022-12-05T09:28:31;14.75;;;6.03;;
74777;SDS011;63298;53.164;8.610;2022-12-05T09:30:58;16.27;;;6.93;;
74777;SDS011;63298;53.164;8.610;2022-12-05T09:33:25;16.90;;;7.20;;
74777;SDS011;63298;53.164;8.610;2022-12-05T09:35:54;14.93;;;7.75;;
74777;SDS011;63298;53.164;8.610;2022-12-05T09:38:20;20.08;;;9.23;;
74777;SDS011;63298;53.164;8.610;2022-12-05T09:40:45;17.70;;;8.27;;
74777;SDS011;63298;53.164;8.610;2022-12-05T09:46:32;21.10;;;8.52;;
74777;SDS011;63298;53.164;8.610;2022-12-05T09:49:09;21.13;;;8.82;;
74777;SDS011;63298;53.164;8.610;2022-12-05T09:51:36;26.83;;;9.57;;
74777;SDS011;63298;53.164;8.610;2022-12-05T09:54:07;22.13;;;8.80;;
74777;SDS011;63298;53.164;8.610;2022-12-05T09:56:35;22.23;;;9.20;;
74777;SDS011;63298;53.164;8.610;2022-12-05T09:59:02;21.67;;;9.77;;
74777;SDS011;63298;53.164;8.610;2022-12-05T10:07:00;26.00;;;9.82;;
74777;SDS011;63298;53.164;8.610;2022-12-05T10:15:19;24.23;;;10.65;;
74777;SDS011;63298;53.164;8.610;2022-12-05T10:18:04;27.50;;;9.25;;
74777;SDS011;63298;53.164;8.610;2022-12-05T10:20:46;25.17;;;9.50;;
74777;SDS011;63298;53.164;8.610;2022-12-05T10:23:20;24.70;;;9.82;;
74777;SDS011;63298;53.164;8.610;2022-12-05T10:25:51;24.73;;;10.98;;
74777;SDS011;63298;53.164;8.610;2022-12-05T10:28:57;27.60;;;10.85;;
74777;SDS011;63298;53.164;8.610;2022-12-05T10:31:32;26.55;;;9.82;;
74777;SDS011;63298;53.164;8.610;2022-12-05T10:34:03;29.15;;;9.60;;
74777;SDS011;63298;53.164;8.610;2022-12-05T10:36:36;24.13;;;9.75;;
74777;SDS011;63298;53.164;8.610;2022-12-05T10:39:01;23.87;;;9.73;;
74777;SDS011;63298;53.164;8.610;2022-12-05T10:41:26;32.67;;;10.77;;
74777;SDS011;63298;53.164;8.610;2022-12-05T10:43:52;35.00;;;11.82;;
74777;SDS011;63298;53.164;8.610;2022-12-05T10:46:18;24.35;;;9.95;;
74777;SDS011;63298;53.164;8.610;2022-12-05T10:48:43;24.65;;;10.30;;
74777;SDS011;63298;53.164;8.610;2022-12-05T10:51:16;30.23;;;10.60;;
74777;SDS011;63298;53.164;8.610;2022-12-05T10:53:51;24.38;;;10.07;;
74777;SDS011;63298;53.164;8.610;2022-12-05T10:56:41;31.50;;;11.57;;
74777;SDS011;63298;53.164;8.610;2022-12-05T10:59:08;25.30;;;9.95;;
74777;SDS011;63298;53.164;8.610;2022-12-05T11:01:38;28.52;;;10.60;;
74777;SDS011;63298;53.164;8.610;2022-12-05T11:06:51;27.63;;;10.95;;
74777;SDS011;63298;53.164;8.610;2022-12-05T11:09:24;30.27;;;11.45;;
74777;SDS011;63298;53.164;8.610;2022-12-05T11:15:00;25.15;;;10.65;;
74777;SDS011;63298;53.164;8.610;2022-12-05T11:17:40;26.95;;;11.18;;
74777;SDS011;63298;53.164;8.610;2022-12-05T11:22:45;31.40;;;11.18;;
74777;SDS011;63298;53.164;8.610;2022-12-05T11:27:52;29.55;;;11.57;;
74777;SDS011;63298;53.164;8.610;2022-12-05T11:30:19;37.90;;;14.73;;
74777;SDS011;63298;53.164;8.610;2022-12-05T11:32:46;32.15;;;12.70;;
74777;SDS011;63298;53.164;8.610;2022-12-05T11:37:39;30.83;;;11.87;;
74777;SDS011;63298;53.164;8.610;2022-12-05T11:40:17;35.63;;;12.13;;
74777;SDS011;63298;53.164;8.610;2022-12-05T11:49:19;25.40;;;10.00;;
74777;SDS011;63298;53.164;8.610;2022-12-05T11:54:51;33.92;;;11.27;;
74777;SDS011;63298;53.164;8.610;2022-12-05T12:00:54;19.88;;;8.35;;
74777;SDS011;63298;53.164;8.610;2022-12-05T12:08:28;13.50;;;6.00;;
74777;SDS011;63298;53.164;8.610;2022-12-05T12:16:21;22.20;;;8.95;;
74777;SDS011;63298;53.164;8.610;2022-12-05T12:21:53;22.70;;;9.02;;
74777;SDS011;63298;53.164;8.610;2022-12-05T12:27:14;29.85;;;9.70;;
74777;SDS011;63298;53.164;8.610;2022-12-05T12:30:10;25.52;;;9.45;;
74777;SDS011;63298;53.164;8.610;2022-12-05T12:35:54;24.83;;;9.52;;
74777;SDS011;63298;53.164;8.610;2022-12-05T12:38:36;30.92;;;11.40;;
74777;SDS011;63298;53.164;8.610;2022-12-05T12:41:10;27.02;;;10.10;;
74777;SDS011;63298;53.164;8.610;2022-12-05T12:52:21;10.98;;;6.03;;
74777;SDS011;63298;53.164;8.610;2022-12-05T13:02:55;10.33;;;5.20;;
74777;SDS011;63298;53.164;8.610;2022-12-05T13:05:41;8.98;;;4.95;;
74777;SDS011;63298;53.164;8.610;2022-12-05T13:08:33;12.27;;;5.40;;
74777;SDS011;63298;53.164;8.610;2022-12-05T13:11:05;10.95;;;5.13;;
74777;SDS011;63298;53.164;8.610;2022-12-05T13:13:35;13.02;;;5.90;;
74777;SDS011;63298;53.164;8.610;2022-12-05T13:16:05;10.82;;;5.32;;
74777;SDS011;63298;53.164;8.610;2022-12-05T13:18:32;13.02;;;5.25;;
74777;SDS011;63298;53.164;8.610;2022-12-05T13:21:02;12.50;;;5.55;;
74777;SDS011;63298;53.164;8.610;2022-12-05T13:23:33;14.00;;;5.68;;
74777;SDS011;63298;53.164;8.610;2022-12-05T13:26:06;12.38;;;5.35;;
74777;SDS011;63298;53.164;8.610;2022-12-05T13:28:35;11.25;;;5.35;;
74777;SDS011;63298;53.164;8.610;2022-12-05T13:31:03;8.18;;;4.50;;
74777;SDS011;63298;53.164;8.610;2022-12-05T13:33:40;9.77;;;5.35;;
74777;SDS011;63298;53.164;8.610;2022-12-05T13:36:09;12.55;;;5.57;;
74777;SDS011;63298;53.164;8.610;2022-12-05T13:38:40;9.45;;;4.78;;
74777;SDS011;63298;53.164;8.610;2022-12-05T13:41:06;10.25;;;4.65;;
74777;SDS011;63298;53.164;8.610;2022-12-05T13:43:32;11.75;;;4.75;;
74777;SDS011;63298;53.164;8.610;2022-12-05T13:46:10;10.50;;;5.15;;
74777;SDS011;63298;53.164;8.610;2022-12-05T13:48:43;9.43;;;4.97;;
74777;SDS011;63298;53.164;8.610;2022-12-05T13:51:24;11.63;;;5.40;;
74777;SDS011;63298;53.164;8.610;2022-12-05T13:54:00;12.15;;;5.07;;
74777;SDS011;63298;53.164;8.610;2022-12-05T13:56:55;21.17;;;8.32;;
74777;SDS011;63298;53.164;8.610;2022-12-05T14:07:40;9.15;;;4.85;;
74777;SDS011;63298;53.164;8.610;2022-12-05T14:10:08;9.95;;;4.95;;
74777;SDS011;63298;53.164;8.610;2022-12-05T14:15:39;12.02;;;4.82;;
74777;SDS011;63298;53.164;8.610;2022-12-05T14:38:20;12.02;;;5.38;;
74777;SDS011;63298;53.164;8.610;2022-12-05T14:40:34;9.48;;;5.35;;
74777;SDS011;63298;53.164;8.610;2022-12-05T14:43:05;11.40;;;5.13;;
74777;SDS011;63298;53.164;8.610;2022-12-05T14:55:43;12.18;;;6.05;;
74777;SDS011;63298;53.164;8.610;2022-12-05T15:01:00;14.18;;;5.72;;
74777;SDS011;63298;53.164;8.610;2022-12-05T15:03:39;11.55;;;5.82;;
74777;SDS011;63298;53.164;8.610;2022-12-05T15:06:13;12.82;;;6.05;;
74777;SDS011;63298;53.164;8.610;2022-12-05T15:08:44;10.98;;;6.10;;
74777;SDS011;63298;53.164;8.610;2022-12-05T15:11:17;12.43;;;6.43;;
74777;SDS011;63298;53.164;8.610;2022-12-05T15:13:45;10.98;;;5.93;;
74777;SDS011;63298;53.164;8.610;2022-12-05T15:16:13;9.75;;;5.53;;
74777;SDS011;63298;53.164;8.610;2022-12-05T15:18:44;11.73;;;5.60;;
74777;SDS011;63298;53.164;8.610;2022-12-05T15:21:24;12.93;;;5.78;;
74777;SDS011;63298;53.164;8.610;2022-12-05T15:23:59;11.60;;;5.10;;
74777;SDS011;63298;53.164;8.610;2022-12-05T15:29:11;10.05;;;5.22;;
74777;SDS011;63298;53.164;8.610;2022-12-05T15:36:55;9.25;;;4.90;;
74777;SDS011;63298;53.164;8.610;2022-12-05T15:39:28;11.32;;;5.35;;
74777;SDS011;63298;53.164;8.610;2022-12-05T15:41:54;10.63;;;4.80;;
74777;SDS011;63298;53.164;8.610;2022-12-05T15:44:21;9.38;;;4.95;;
74777;SDS011;63298;53.164;8.610;2022-12-05T15:46:52;9.18;;;5.45;;
74777;SDS011;63298;53.164;8.610;2022-12-05T15:49:22;10.80;;;5.50;;
74777;SDS011;63298;53.164;8.610;2022-12-05T15:51:53;13.88;;;5.32;;
74777;SDS011;63298;53.164;8.610;2022-12-05T15:54:25;9.27;;;4.72;;
74777;SDS011;63298;53.164;8.610;2022-12-05T15:57:01;10.80;;;4.50;;
74777;SDS011;63298;53.164;8.610;2022-12-05T15:59:35;9.30;;;4.53;;
74777;SDS011;63298;53.164;8.610;2022-12-05T16:04:50;8.52;;;4.57;;
74777;SDS011;63298;53.164;8.610;2022-12-05T16:07:21;6.22;;;4.15;;
74777;SDS011;63298;53.164;8.610;2022-12-05T16:09:50;10.23;;;5.13;;
74777;SDS011;63298;53.164;8.610;2022-12-05T16:14:51;8.73;;;4.95;;
74777;SDS011;63298;53.164;8.610;2022-12-05T16:17:19;13.60;;;5.43;;
74777;SDS011;63298;53.164;8.610;2022-12-05T16:19:45;7.47;;;4.70;;
74777;SDS011;63298;53.164;8.610;2022-12-05T16:24:40;10.43;;;4.63;;
74777;SDS011;63298;53.164;8.610;2022-12-05T16:27:26;8.73;;;4.97;;
74777;SDS011;63298;53.164;8.610;2022-12-05T16:32:43;8.52;;;4.70;;
74777;SDS011;63298;53.164;8.610;2022-12-05T16:40:27;11.52;;;5.90;;
74777;SDS011;63298;53.164;8.610;2022-12-05T16:43:02;12.65;;;5.93;;
74777;SDS011;63298;53.164;8.610;2022-12-05T16:45:36;10.18;;;5.50;;
74777;SDS011;63298;53.164;8.610;2022-12-05T16:48:12;11.32;;;5.65;;
74777;SDS011;63298;53.164;8.610;2022-12-05T16:50:43;9.73;;;4.80;;
74777;SDS011;63298;53.164;8.610;2022-12-05T16:55:37;8.10;;;4.70;;
74777;SDS011;63298;53.164;8.610;2022-12-05T16:58:04;10.25;;;5.50;;
74777;SDS011;63298;53.164;8.610;2022-12-05T17:00:30;7.95;;;4.63;;
74777;SDS011;63298;53.164;8.610;2022-12-05T17:02:56;8.55;;;4.68;;
74777;SDS011;63298;53.164;8.610;2022-12-05T17:05:21;8.52;;;4.65;;
74777;SDS011;63298;53.164;8.610;2022-12-05T17:07:47;9.57;;;4.85;;
74777;SDS011;63298;53.164;8.610;2022-12-05T17:10:12;10.30;;;5.43;;
74777;SDS011;63298;53.164;8.610;2022-12-05T17:12:37;9.32;;;5.18;;
74777;SDS011;63298;53.164;8.610;2022-12-05T17:15:03;8.02;;;4.80;;
74777;SDS011;63298;53.164;8.610;2022-12-05T17:17:28;7.65;;;5.10;;
74777;SDS011;63298;53.164;8.610;2022-12-05T17:19:54;12.05;;;6.32;;
74777;SDS011;63298;53.164;8.610;2022-12-05T17:22:19;11.93;;;5.50;;
74777;SDS011;63298;53.164;8.610;2022-12-05T17:24:44;12.95;;;5.68;;
74777;SDS011;63298;53.164;8.610;2022-12-05T17:27:10;10.40;;;5.40;;
74777;SDS011;63298;53.164;8.610;2022-12-05T17:29:36;9.73;;;5.70;;
74777;SDS011;63298;53.164;8.610;2022-12-05T17:32:02;12.82;;;6.00;;
74777;SDS011;63298;53.164;8.610;2022-12-05T17:34:29;11.00;;;6.15;;
74777;SDS011;63298;53.164;8.610;2022-12-05T17:36:54;10.30;;;5.88;;
74777;SDS011;63298;53.164;8.610;2022-12-05T17:39:20;10.80;;;5.82;;
74777;SDS011;63298;53.164;8.610;2022-12-05T17:41:45;11.53;;;6.07;;
74777;SDS011;63298;53.164;8.610;2022-12-05T17:44:11;13.70;;;7.00;;
74777;SDS011;63298;53.164;8.610;2022-12-05T17:46:38;14.43;;;6.13;;
74777;SDS011;63298;53.164;8.610;2022-12-05T17:49:05;13.73;;;6.10;;
74777;SDS011;63298;53.164;8.610;2022-12-05T17:51:36;11.10;;;6.00;;
74777;SDS011;63298;53.164;8.610;2022-12-05T17:54:01;11.98;;;6.68;;
74777;SDS011;63298;53.164;8.610;2022-12-05T17:56:27;11.07;;;6.25;;
74777;SDS011;63298;53.164;8.610;2022-12-05T17:58:52;12.32;;;5.65;;
74777;SDS011;63298;53.164;8.610;2022-12-05T18:01:18;10.80;;;6.10;;